Time;durP1;ratioP1;P1;durP2;ratioP2;P2;SDS_P1;SDS_P2;PMS_P1;PMS_P2;Temp;Humidity;BMP_temperature;BMP_pressure;BME280_temperature;BME280_humidity;BME280_pressure;Samples;Min_cycle;Max_cycle;Signal;HPM_P1;HPM_P2
2024/02/03 00:00:05;;;;;;;36.58;21.05;;;;;;;;;;5036275;28;20193;-73
2024/02/03 00:02:31;;;;;;;37.35;21.35;;;;;;;;;;5025785;28;20209;-73
2024/02/03 00:04:57;;;;;;;34.35;21.00;;;;;;;;;;5034442;28;20185;-73
2024/02/03 00:07:22;;;;;;;34.85;21.02;;;;;;;;;;5040528;28;20190;-73
2024/02/03 00:09:48;;;;;;;39.25;21.15;;;;;;;;;;5041052;28;20192;-74
2024/02/03 00:12:15;;;;;;;41.38;22.10;;;;;;;;;;5050805;28;20185;-73
2024/02/03 00:14:40;;;;;;;34.08;21.08;;;;;;;;;;5039857;28;20185;-72
2024/02/03 00:17:06;;;;;;;40.08;21.10;;;;;;;;;;5044333;28;20232;-73
2024/02/03 00:19:31;;;;;;;34.15;21.00;;;;;;;;;;5031986;28;20650;-73
2024/02/03 00:21:57;;;;;;;32.53;21.10;;;;;;;;;;5031024;28;20295;-73
2024/02/03 00:24:23;;;;;;;33.20;20.33;;;;;;;;;;5038743;28;20255;-73
2024/02/03 00:26:48;;;;;;;30.70;19.55;;;;;;;;;;5034059;28;20186;-73
2024/02/03 00:29:14;;;;;;;35.72;20.65;;;;;;;;;;5033316;28;20193;-73
2024/02/03 00:31:39;;;;;;;30.60;19.63;;;;;;;;;;5042190;28;20277;-74
2024/02/03 00:34:05;;;;;;;29.58;19.60;;;;;;;;;;5049959;28;20193;-74
2024/02/03 00:36:30;;;;;;;25.73;18.48;;;;;;;;;;5046737;28;20257;-74
2024/02/03 00:38:58;;;;;;;27.83;18.48;;;;;;;;;;5039673;28;20193;-74
2024/02/03 00:41:24;;;;;;;33.00;18.88;;;;;;;;;;5042259;28;20263;-74
2024/02/03 00:43:49;;;;;;;30.05;18.70;;;;;;;;;;5043904;28;20244;-74
2024/02/03 00:46:15;;;;;;;28.65;17.88;;;;;;;;;;5030493;28;20722;-74
2024/02/03 00:48:40;;;;;;;28.38;18.88;;;;;;;;;;5042534;28;20193;-74
2024/02/03 00:51:09;;;;;;;26.42;17.65;;;;;;;;;;5038620;28;20196;-74
2024/02/03 00:53:36;;;;;;;28.65;17.35;;;;;;;;;;5046921;28;20247;-74
2024/02/03 00:56:02;;;;;;;27.58;17.48;;;;;;;;;;5048820;28;20209;-74
2024/02/03 00:58:28;;;;;;;28.70;17.65;;;;;;;;;;5049730;28;20194;-74
2024/02/03 01:00:53;;;;;;;27.33;17.60;;;;;;;;;;5034710;28;20291;-74
2024/02/03 01:03:19;;;;;;;28.85;17.63;;;;;;;;;;5045591;28;20598;-75
2024/02/03 01:05:44;;;;;;;28.00;17.85;;;;;;;;;;5038706;28;20589;-74
2024/02/03 01:08:10;;;;;;;34.08;18.95;;;;;;;;;;5031850;28;20178;-75
2024/02/03 01:10:35;;;;;;;26.27;16.33;;;;;;;;;;5030428;28;20273;-75
2024/02/03 01:13:01;;;;;;;24.30;17.30;;;;;;;;;;5041451;28;20661;-74
2024/02/03 01:15:27;;;;;;;26.73;17.58;;;;;;;;;;5031762;28;20186;-73
2024/02/03 01:17:52;;;;;;;28.05;17.10;;;;;;;;;;5027680;28;20625;-73
2024/02/03 01:20:18;;;;;;;27.88;16.90;;;;;;;;;;5035217;28;20193;-75
2024/02/03 01:22:43;;;;;;;26.52;17.45;;;;;;;;;;5045039;28;20189;-73
2024/02/03 01:25:09;;;;;;;29.45;17.67;;;;;;;;;;5031377;28;20192;-75
2024/02/03 01:27:34;;;;;;;34.63;19.02;;;;;;;;;;5033120;28;20221;-73
2024/02/03 01:30:00;;;;;;;23.85;17.58;;;;;;;;;;5041408;28;20208;-73
2024/02/03 01:32:25;;;;;;;27.17;17.70;;;;;;;;;;5029596;28;20194;-74
2024/02/03 01:34:51;;;;;;;26.33;17.67;;;;;;;;;;5015922;28;20567;-75
2024/02/03 01:37:16;;;;;;;30.83;18.33;;;;;;;;;;5035115;28;20225;-74
2024/02/03 01:39:42;;;;;;;25.50;17.30;;;;;;;;;;5036786;28;20664;-75
2024/02/03 01:42:07;;;;;;;27.95;18.00;;;;;;;;;;5031855;28;20257;-74
2024/02/03 01:44:33;;;;;;;30.38;18.90;;;;;;;;;;5030421;28;20197;-75
2024/02/03 01:47:01;;;;;;;33.35;18.70;;;;;;;;;;5028849;28;20181;-75
2024/02/03 01:49:30;;;;;;;29.15;18.27;;;;;;;;;;5041852;28;20197;-74
2024/02/03 01:51:57;;;;;;;33.45;17.95;;;;;;;;;;5029174;28;20190;-76
2024/02/03 01:54:23;;;;;;;26.73;18.83;;;;;;;;;;5044548;28;20617;-74
2024/02/03 01:56:51;;;;;;;30.48;19.38;;;;;;;;;;5034231;28;20704;-75
2024/02/03 01:59:17;;;;;;;31.20;18.55;;;;;;;;;;5029283;28;20205;-74
2024/02/03 02:01:44;;;;;;;29.13;18.85;;;;;;;;;;5033105;28;20182;-73
2024/02/03 02:04:10;;;;;;;36.47;21.02;;;;;;;;;;5028763;28;20190;-74
2024/02/03 02:06:36;;;;;;;32.30;21.10;;;;;;;;;;5027355;28;20189;-74
2024/02/03 02:09:01;;;;;;;33.50;20.30;;;;;;;;;;5036206;28;20173;-74
2024/02/03 02:11:27;;;;;;;37.63;20.85;;;;;;;;;;5042487;28;20178;-74
2024/02/03 02:13:53;;;;;;;33.40;22.05;;;;;;;;;;5043235;28;20604;-74
2024/02/03 02:16:18;;;;;;;33.17;21.23;;;;;;;;;;5045433;28;20209;-74
2024/02/03 02:18:44;;;;;;;33.28;21.23;;;;;;;;;;5039850;28;20237;-75
2024/02/03 02:21:09;;;;;;;36.08;22.35;;;;;;;;;;5038939;28;20272;-75
2024/02/03 02:23:35;;;;;;;35.10;21.73;;;;;;;;;;5032246;28;20188;-74
2024/02/03 02:26:00;;;;;;;39.58;21.92;;;;;;;;;;5043762;28;20609;-74
2024/02/03 02:28:26;;;;;;;36.90;22.20;;;;;;;;;;5039718;28;20197;-73
2024/02/03 02:30:51;;;;;;;39.45;23.13;;;;;;;;;;5035797;28;20275;-74
2024/02/03 02:33:17;;;;;;;34.42;22.15;;;;;;;;;;5030018;28;20201;-75
2024/02/03 02:35:44;;;;;;;38.08;22.35;;;;;;;;;;5029612;28;20193;-74
2024/02/03 02:38:10;;;;;;;37.55;22.40;;;;;;;;;;5048419;28;20255;-74
2024/02/03 02:40:35;;;;;;;35.13;22.58;;;;;;;;;;5030242;28;20503;-75
2024/02/03 02:43:01;;;;;;;43.05;23.02;;;;;;;;;;5013330;28;20206;-75
2024/02/03 02:45:26;;;;;;;39.42;21.90;;;;;;;;;;5040875;28;20182;-74
2024/02/03 02:47:52;;;;;;;35.42;21.88;;;;;;;;;;5030074;28;20276;-74
2024/02/03 02:50:18;;;;;;;35.75;22.77;;;;;;;;;;5034923;28;20190;-74
2024/02/03 02:52:44;;;;;;;36.47;21.73;;;;;;;;;;5036726;28;20220;-74
2024/02/03 02:55:09;;;;;;;36.03;21.90;;;;;;;;;;5046990;28;20567;-75
2024/02/03 02:57:35;;;;;;;33.95;21.58;;;;;;;;;;5043349;28;20220;-76
2024/02/03 03:00:00;;;;;;;33.80;22.73;;;;;;;;;;5046435;28;20243;-75
2024/02/03 03:02:26;;;;;;;39.42;22.95;;;;;;;;;;5035310;28;20249;-75
2024/02/03 03:04:51;;;;;;;40.30;22.05;;;;;;;;;;5041031;28;20539;-75
2024/02/03 03:07:17;;;;;;;35.60;22.98;;;;;;;;;;5031094;28;20650;-75
2024/02/03 03:09:42;;;;;;;39.15;22.63;;;;;;;;;;5034061;28;20235;-76
2024/02/03 03:12:11;;;;;;;33.70;22.42;;;;;;;;;;5036613;28;20193;-75
2024/02/03 03:14:37;;;;;;;36.58;21.55;;;;;;;;;;5039993;28;20194;-75
2024/02/03 03:17:03;;;;;;;34.65;22.85;;;;;;;;;;5032632;28;20581;-76
2024/02/03 03:19:28;;;;;;;33.95;22.02;;;;;;;;;;5037285;28;20213;-75
2024/02/03 03:21:54;;;;;;;31.92;22.30;;;;;;;;;;5048167;28;20272;-76
2024/02/03 03:24:19;;;;;;;33.75;21.95;;;;;;;;;;5017023;28;20192;-75
2024/02/03 03:26:44;;;;;;;36.63;21.90;;;;;;;;;;5034590;28;20291;-77
2024/02/03 03:29:11;;;;;;;30.63;19.85;;;;;;;;;;5034509;28;20644;-76
2024/02/03 03:31:38;;;;;;;33.92;20.77;;;;;;;;;;5046343;28;20589;-75
2024/02/03 03:34:03;;;;;;;34.28;21.60;;;;;;;;;;5029356;28;20201;-76
2024/02/03 03:36:29;;;;;;;32.20;20.80;;;;;;;;;;5027636;28;20688;-74
2024/02/03 03:38:54;;;;;;;29.05;20.80;;;;;;;;;;5042597;28;20348;-75
2024/02/03 03:41:19;;;;;;;33.67;19.48;;;;;;;;;;5047745;28;20188;-76
2024/02/03 03:43:47;;;;;;;29.10;18.70;;;;;;;;;;5042219;28;20217;-75
2024/02/03 03:46:13;;;;;;;34.13;20.58;;;;;;;;;;5039123;28;20263;-75
2024/02/03 03:48:38;;;;;;;31.85;20.00;;;;;;;;;;5023416;28;20197;-75
2024/02/03 03:51:04;;;;;;;26.65;19.05;;;;;;;;;;5045255;28;20248;-75
2024/02/03 03:53:29;;;;;;;27.17;18.27;;;;;;;;;;5046036;28;20281;-75
2024/02/03 03:55:55;;;;;;;28.63;18.30;;;;;;;;;;5040669;28;20182;-75
2024/02/03 03:58:20;;;;;;;30.35;18.48;;;;;;;;;;5026868;28;20197;-74
2024/02/03 04:00:46;;;;;;;28.25;18.15;;;;;;;;;;5036140;28;20597;-75
2024/02/03 04:03:11;;;;;;;26.42;18.13;;;;;;;;;;5029101;28;20248;-75
2024/02/03 04:05:37;;;;;;;29.08;18.30;;;;;;;;;;5018413;28;20182;-74
2024/02/03 04:08:03;;;;;;;26.25;17.65;;;;;;;;;;5036747;28;20189;-75
2024/02/03 04:10:29;;;;;;;28.38;17.85;;;;;;;;;;5010919;28;20597;-75
2024/02/03 04:12:54;;;;;;;25.08;17.40;;;;;;;;;;5030286;28;20336;-75
2024/02/03 04:15:20;;;;;;;24.40;17.85;;;;;;;;;;5047553;28;20193;-75
2024/02/03 04:17:45;;;;;;;28.40;17.00;;;;;;;;;;5029269;28;20587;-75
2024/02/03 04:20:11;;;;;;;27.85;17.20;;;;;;;;;;5034745;28;20181;-75
2024/02/03 04:22:36;;;;;;;28.00;17.23;;;;;;;;;;5032793;28;20193;-75
2024/02/03 04:25:02;;;;;;;28.95;17.63;;;;;;;;;;5038817;28;20597;-75
2024/02/03 04:27:27;;;;;;;31.23;17.92;;;;;;;;;;5040674;28;20690;-75
2024/02/03 04:29:53;;;;;;;24.05;17.38;;;;;;;;;;5036216;28;20198;-75
2024/02/03 04:32:19;;;;;;;27.27;17.52;;;;;;;;;;5040592;28;20299;-75
2024/02/03 04:34:44;;;;;;;24.13;16.25;;;;;;;;;;5036758;28;20201;-76
2024/02/03 04:37:09;;;;;;;25.50;17.42;;;;;;;;;;5038064;28;20288;-75
2024/02/03 04:39:35;;;;;;;26.88;15.93;;;;;;;;;;5041100;28;20181;-75
2024/02/03 04:42:00;;;;;;;29.00;16.92;;;;;;;;;;5035796;28;20666;-75
2024/02/03 04:44:26;;;;;;;22.35;16.58;;;;;;;;;;5034622;28;20190;-75
2024/02/03 04:46:51;;;;;;;29.25;16.83;;;;;;;;;;5028770;28;20255;-75
2024/02/03 04:49:17;;;;;;;26.88;15.70;;;;;;;;;;5035564;28;20194;-75
2024/02/03 04:51:42;;;;;;;28.30;17.27;;;;;;;;;;5036601;28;20225;-76
2024/02/03 04:54:08;;;;;;;27.35;16.55;;;;;;;;;;5036456;28;20197;-75
2024/02/03 04:56:33;;;;;;;26.02;16.45;;;;;;;;;;5041289;28;20303;-76
2024/02/03 04:58:59;;;;;;;30.40;16.90;;;;;;;;;;5048684;28;20659;-75
2024/02/03 05:01:24;;;;;;;26.30;16.45;;;;;;;;;;5043080;28;20201;-75
2024/02/03 05:03:50;;;;;;;23.92;15.73;;;;;;;;;;5031242;28;20268;-75
2024/02/03 05:06:21;;;;;;;29.70;16.98;;;;;;;;;;5038898;28;20236;-75
2024/02/03 05:08:46;;;;;;;23.77;16.08;;;;;;;;;;5048362;28;20189;-75
2024/02/03 05:11:12;;;;;;;26.88;17.23;;;;;;;;;;5030452;28;20209;-75
2024/02/03 05:13:37;;;;;;;27.27;16.80;;;;;;;;;;5033090;28;20190;-76
2024/02/03 05:16:03;;;;;;;23.77;16.50;;;;;;;;;;5042912;28;20189;-75
2024/02/03 05:18:29;;;;;;;29.45;16.92;;;;;;;;;;5036074;28;20684;-75
2024/02/03 05:20:55;;;;;;;26.63;17.42;;;;;;;;;;5034678;28;20197;-75
2024/02/03 05:23:20;;;;;;;26.95;17.15;;;;;;;;;;5032832;28;20207;-75
2024/02/03 05:25:46;;;;;;;25.27;17.38;;;;;;;;;;5047792;28;20194;-75
2024/02/03 05:28:11;;;;;;;27.17;17.30;;;;;;;;;;5034990;28;20198;-75
2024/02/03 05:30:37;;;;;;;29.50;17.83;;;;;;;;;;5029186;28;20655;-75
2024/02/03 05:33:02;;;;;;;28.05;17.50;;;;;;;;;;5035917;28;20676;-76
2024/02/03 05:35:28;;;;;;;25.42;17.08;;;;;;;;;;5049336;28;20189;-74
2024/02/03 05:37:53;;;;;;;29.90;17.50;;;;;;;;;;5041165;28;20713;-75
2024/02/03 05:40:19;;;;;;;27.08;16.60;;;;;;;;;;5031586;28;20205;-75
2024/02/03 05:42:44;;;;;;;30.88;17.63;;;;;;;;;;5044786;28;20201;-75
2024/02/03 05:45:10;;;;;;;30.27;17.33;;;;;;;;;;5035817;28;20201;-75
2024/02/03 05:47:35;;;;;;;35.05;18.10;;;;;;;;;;5048334;28;20189;-75
2024/02/03 05:50:00;;;;;;;28.05;17.77;;;;;;;;;;5035473;28;20241;-75
2024/02/03 05:52:26;;;;;;;27.73;18.05;;;;;;;;;;5038007;28;20212;-75
2024/02/03 05:54:52;;;;;;;30.33;18.98;;;;;;;;;;5039817;28;20189;-75
2024/02/03 05:57:17;;;;;;;25.75;17.08;;;;;;;;;;5041254;28;20234;-75
2024/02/03 05:59:46;;;;;;;29.95;18.08;;;;;;;;;;5029823;28;20197;-76
2024/02/03 06:02:12;;;;;;;29.30;17.63;;;;;;;;;;5030664;28;20190;-75
2024/02/03 06:04:40;;;;;;;30.25;18.67;;;;;;;;;;5032447;28;20633;-75
2024/02/03 06:07:06;;;;;;;29.08;17.55;;;;;;;;;;5037044;28;20689;-75
2024/02/03 06:09:32;;;;;;;25.67;17.15;;;;;;;;;;5041590;28;20564;-75
2024/02/03 06:11:57;;;;;;;29.05;17.98;;;;;;;;;;5038974;28;20197;-75
2024/02/03 06:14:23;;;;;;;31.48;19.27;;;;;;;;;;5030574;28;20185;-75
2024/02/03 06:16:49;;;;;;;27.90;17.67;;;;;;;;;;5037506;28;20669;-75
2024/02/03 06:19:15;;;;;;;26.73;16.83;;;;;;;;;;5029189;28;20301;-75
2024/02/03 06:21:40;;;;;;;29.58;17.60;;;;;;;;;;5042463;28;20194;-75
2024/02/03 06:24:06;;;;;;;35.05;18.20;;;;;;;;;;5041096;28;20237;-75
2024/02/03 06:26:32;;;;;;;34.30;17.98;;;;;;;;;;5043758;28;20318;-75
2024/02/03 06:28:57;;;;;;;25.60;17.10;;;;;;;;;;5047296;28;20186;-75
2024/02/03 06:31:23;;;;;;;35.85;18.05;;;;;;;;;;5045888;28;20223;-75
2024/02/03 06:33:48;;;;;;;29.88;18.77;;;;;;;;;;5043424;28;20194;-75
2024/02/03 06:36:14;;;;;;;32.03;18.75;;;;;;;;;;5037060;28;20258;-75
2024/02/03 06:38:40;;;;;;;30.60;18.88;;;;;;;;;;5030619;28;20229;-75
2024/02/03 06:41:06;;;;;;;29.83;19.05;;;;;;;;;;5034923;28;20186;-75
2024/02/03 06:43:31;;;;;;;30.70;18.15;;;;;;;;;;5045621;28;20626;-75
2024/02/03 06:45:57;;;;;;;34.13;19.13;;;;;;;;;;5030704;28;20210;-75
2024/02/03 06:48:22;;;;;;;35.67;19.23;;;;;;;;;;5032021;28;20534;-76
2024/02/03 06:50:49;;;;;;;31.42;19.20;;;;;;;;;;5038676;28;20247;-76
2024/02/03 06:53:15;;;;;;;37.42;19.38;;;;;;;;;;5023708;28;20236;-76
2024/02/03 06:55:40;;;;;;;30.95;20.00;;;;;;;;;;5029539;28;20198;-75
2024/02/03 06:58:06;;;;;;;32.10;21.30;;;;;;;;;;5045296;28;20288;-75
2024/02/03 07:00:31;;;;;;;32.75;19.63;;;;;;;;;;5029934;28;20189;-75
2024/02/03 07:02:57;;;;;;;39.60;21.25;;;;;;;;;;5039626;28;20181;-75
2024/02/03 07:05:22;;;;;;;33.67;21.45;;;;;;;;;;5045760;28;20216;-75
2024/02/03 07:07:48;;;;;;;39.00;21.90;;;;;;;;;;5044786;28;20209;-75
2024/02/03 07:10:13;;;;;;;36.88;21.90;;;;;;;;;;5037615;28;20198;-76
2024/02/03 07:12:39;;;;;;;32.67;21.40;;;;;;;;;;5044966;28;20196;-75
2024/02/03 07:15:05;;;;;;;42.58;21.67;;;;;;;;;;5044707;28;20193;-76
2024/02/03 07:17:31;;;;;;;37.65;23.05;;;;;;;;;;5032684;28;20721;-76
2024/02/03 07:19:56;;;;;;;36.60;22.58;;;;;;;;;;5038109;28;20237;-76
2024/02/03 07:22:22;;;;;;;39.20;22.27;;;;;;;;;;5036052;28;20261;-77
2024/02/03 07:24:47;;;;;;;34.33;21.35;;;;;;;;;;5035180;28;20249;-76
2024/02/03 07:27:13;;;;;;;40.22;22.77;;;;;;;;;;5035076;28;20547;-76
2024/02/03 07:29:38;;;;;;;32.17;21.05;;;;;;;;;;5045620;28;20691;-77
2024/02/03 07:32:04;;;;;;;39.65;23.70;;;;;;;;;;5044307;28;20679;-76
2024/02/03 07:34:30;;;;;;;38.80;22.65;;;;;;;;;;5037226;28;20186;-77
2024/02/03 07:36:56;;;;;;;40.90;22.98;;;;;;;;;;5036648;28;20241;-78
2024/02/03 07:39:21;;;;;;;36.53;21.35;;;;;;;;;;5026940;28;20243;-77
2024/02/03 07:41:47;;;;;;;32.40;21.45;;;;;;;;;;5040880;28;20264;-76
2024/02/03 07:44:13;;;;;;;33.58;21.90;;;;;;;;;;5042963;28;20210;-77
2024/02/03 07:46:40;;;;;;;32.88;20.30;;;;;;;;;;5033890;28;20251;-77
2024/02/03 07:49:05;;;;;;;33.15;20.73;;;;;;;;;;5031173;28;20207;-76
2024/02/03 07:51:31;;;;;;;35.40;20.73;;;;;;;;;;5020962;28;20186;-76
2024/02/03 07:53:57;;;;;;;29.38;20.02;;;;;;;;;;5035813;28;20217;-76
2024/02/03 07:56:22;;;;;;;32.65;19.50;;;;;;;;;;5037597;28;20252;-76
2024/02/03 07:58:48;;;;;;;39.30;19.73;;;;;;;;;;5046172;28;20280;-75
2024/02/03 08:01:14;;;;;;;36.25;19.55;;;;;;;;;;5028531;28;20273;-76
2024/02/03 08:03:39;;;;;;;32.10;19.95;;;;;;;;;;5030590;28;20223;-76
2024/02/03 08:06:06;;;;;;;30.40;19.63;;;;;;;;;;5039671;28;20968;-76
2024/02/03 08:08:32;;;;;;;30.75;18.98;;;;;;;;;;5048144;28;20642;-76
2024/02/03 08:10:57;;;;;;;32.90;18.50;;;;;;;;;;5046583;28;20229;-76
2024/02/03 08:13:23;;;;;;;30.40;18.55;;;;;;;;;;5033022;28;20179;-75
2024/02/03 08:15:48;;;;;;;29.33;17.85;;;;;;;;;;5049073;28;20181;-75
2024/02/03 08:18:14;;;;;;;28.25;18.25;;;;;;;;;;5037225;28;20321;-76
2024/02/03 08:20:39;;;;;;;26.75;17.27;;;;;;;;;;5049897;28;20662;-75
2024/02/03 08:23:04;;;;;;;29.60;17.48;;;;;;;;;;5033884;28;20681;-76
2024/02/03 08:25:30;;;;;;;28.45;16.67;;;;;;;;;;5033784;28;20194;-76
2024/02/03 08:27:55;;;;;;;33.33;17.67;;;;;;;;;;5043518;28;20182;-76
2024/02/03 08:30:21;;;;;;;33.22;17.27;;;;;;;;;;5039698;28;20209;-76
2024/02/03 08:32:46;;;;;;;30.17;17.80;;;;;;;;;;5030814;28;20194;-75
2024/02/03 08:35:12;;;;;;;27.05;16.75;;;;;;;;;;5040544;28;20222;-75
2024/02/03 08:37:37;;;;;;;29.13;17.65;;;;;;;;;;5024973;28;20210;-76
2024/02/03 08:40:04;;;;;;;31.55;17.98;;;;;;;;;;5035100;28;20190;-76
2024/02/03 08:42:29;;;;;;;27.67;17.23;;;;;;;;;;5039065;28;20201;-75
2024/02/03 08:44:55;;;;;;;27.30;16.95;;;;;;;;;;5043581;28;20189;-75
2024/02/03 08:47:20;;;;;;;25.25;16.80;;;;;;;;;;5038469;28;20625;-75
2024/02/03 08:49:50;;;;;;;30.33;18.27;;;;;;;;;;5033639;28;20196;-75
2024/02/03 08:52:16;;;;;;;29.83;17.83;;;;;;;;;;5031884;28;20259;-75
2024/02/03 08:54:41;;;;;;;28.25;17.05;;;;;;;;;;5037277;28;20185;-75
2024/02/03 08:57:06;;;;;;;30.45;17.25;;;;;;;;;;5042321;28;20263;-75
2024/02/03 08:59:32;;;;;;;29.90;17.10;;;;;;;;;;5047367;28;20602;-75
2024/02/03 09:01:57;;;;;;;25.80;15.73;;;;;;;;;;5021710;28;20197;-75
2024/02/03 09:04:23;;;;;;;28.17;17.17;;;;;;;;;;5049943;28;20685;-76
2024/02/03 09:06:48;;;;;;;22.80;16.65;;;;;;;;;;5044624;28;20222;-75
2024/02/03 09:09:13;;;;;;;26.48;16.30;;;;;;;;;;5042390;28;20202;-75
2024/02/03 09:11:39;;;;;;;25.33;16.75;;;;;;;;;;5038324;28;20192;-75
2024/02/03 09:14:04;;;;;;;27.88;15.85;;;;;;;;;;5037138;28;20186;-75
2024/02/03 09:16:30;;;;;;;27.05;14.52;;;;;;;;;;5016497;28;20260;-76
2024/02/03 09:18:55;;;;;;;20.90;14.80;;;;;;;;;;5037909;28;20309;-75
2024/02/03 09:21:21;;;;;;;23.90;15.18;;;;;;;;;;5038827;28;20665;-75
2024/02/03 09:23:46;;;;;;;26.95;14.05;;;;;;;;;;5018855;28;20185;-75
2024/02/03 09:26:12;;;;;;;23.15;13.98;;;;;;;;;;5034071;28;20661;-75
2024/02/03 09:28:37;;;;;;;19.35;12.95;;;;;;;;;;5020514;28;20189;-76
2024/02/03 09:31:03;;;;;;;22.10;13.18;;;;;;;;;;5012808;28;20251;-75
2024/02/03 09:33:29;;;;;;;24.77;13.45;;;;;;;;;;5039882;28;20647;-75
2024/02/03 09:35:54;;;;;;;19.17;13.80;;;;;;;;;;5033854;28;20206;-75
2024/02/03 09:38:20;;;;;;;22.30;14.57;;;;;;;;;;5044571;28;20245;-76
2024/02/03 09:40:45;;;;;;;23.75;13.65;;;;;;;;;;5044231;28;20213;-76
2024/02/03 09:43:11;;;;;;;21.83;13.60;;;;;;;;;;5048651;28;20189;-76
2024/02/03 09:45:37;;;;;;;22.70;12.73;;;;;;;;;;5045808;28;20197;-75
2024/02/03 09:48:03;;;;;;;21.90;12.70;;;;;;;;;;5037243;28;20226;-75
2024/02/03 09:50:29;;;;;;;21.70;12.40;;;;;;;;;;5038076;28;20214;-75
2024/02/03 09:52:54;;;;;;;24.35;12.73;;;;;;;;;;5037605;28;20224;-75
2024/02/03 09:55:19;;;;;;;21.20;11.50;;;;;;;;;;5047879;28;20193;-76
2024/02/03 09:57:45;;;;;;;22.67;12.43;;;;;;;;;;5045392;28;20524;-76
2024/02/03 10:00:12;;;;;;;19.55;10.80;;;;;;;;;;5036417;28;20641;-76
2024/02/03 10:02:37;;;;;;;20.33;10.40;;;;;;;;;;5035276;28;20196;-76
2024/02/03 10:05:03;;;;;;;17.95;9.98;;;;;;;;;;5034084;28;20182;-76
2024/02/03 10:07:28;;;;;;;19.00;9.30;;;;;;;;;;5038909;28;20614;-76
2024/02/03 10:10:07;;;;;;;19.67;9.30;;;;;;;;;;5030025;28;20197;-76
2024/02/03 10:12:33;;;;;;;19.67;9.20;;;;;;;;;;5028180;28;20181;-76
2024/02/03 10:15:00;;;;;;;18.73;10.00;;;;;;;;;;5050157;28;20207;-76
2024/02/03 10:17:25;;;;;;;18.38;9.35;;;;;;;;;;5032363;28;20271;-76
2024/02/03 10:19:51;;;;;;;15.43;8.40;;;;;;;;;;5032099;28;20248;-76
2024/02/03 10:22:16;;;;;;;15.35;8.15;;;;;;;;;;5038379;28;20187;-77
2024/02/03 10:24:41;;;;;;;14.80;8.07;;;;;;;;;;5032351;28;20639;-76
2024/02/03 10:27:07;;;;;;;20.70;9.10;;;;;;;;;;5037686;28;20213;-77
2024/02/03 10:29:33;;;;;;;18.40;8.63;;;;;;;;;;5029220;28;20540;-77
2024/02/03 10:31:58;;;;;;;17.38;8.65;;;;;;;;;;5040471;28;20555;-77
2024/02/03 10:34:26;;;;;;;13.75;7.47;;;;;;;;;;5035630;28;20177;-77
2024/02/03 10:36:51;;;;;;;21.20;8.57;;;;;;;;;;5038027;28;20553;-76
2024/02/03 10:39:17;;;;;;;16.33;7.72;;;;;;;;;;5045408;28;20268;-76
2024/02/03 10:41:46;;;;;;;14.00;7.97;;;;;;;;;;5047191;28;20193;-77
2024/02/03 10:44:21;;;;;;;16.33;7.63;;;;;;;;;;5041453;28;20268;-77
2024/02/03 10:46:50;;;;;;;14.35;6.90;;;;;;;;;;5037452;28;20186;-77
2024/02/03 10:49:16;;;;;;;14.73;6.53;;;;;;;;;;5028366;28;20303;-77
2024/02/03 10:51:46;;;;;;;11.13;6.95;;;;;;;;;;5029846;28;20605;-76
2024/02/03 10:54:16;;;;;;;13.75;6.65;;;;;;;;;;5037394;28;20178;-77
2024/02/03 10:56:45;;;;;;;15.43;6.13;;;;;;;;;;5015470;28;20213;-77
2024/02/03 10:59:10;;;;;;;11.32;5.57;;;;;;;;;;5029876;28;20230;-76
2024/02/03 11:01:36;;;;;;;14.93;6.95;;;;;;;;;;5043727;28;20281;-76
2024/02/03 11:04:04;;;;;;;16.52;5.20;;;;;;;;;;5055041;28;20207;-76
2024/02/03 11:06:31;;;;;;;10.70;5.82;;;;;;;;;;5044613;28;20618;-77
2024/02/03 11:09:29;;;;;;;12.45;4.97;;;;;;;;;;5049523;28;20264;-77
2024/02/03 11:11:55;;;;;;;9.68;4.45;;;;;;;;;;5038277;28;20232;-76
2024/02/03 11:14:24;;;;;;;12.05;4.32;;;;;;;;;;5032874;28;20686;-76
2024/02/03 11:17:01;;;;;;;7.80;4.30;;;;;;;;;;5046940;28;20688;-76
2024/02/03 11:19:31;;;;;;;8.80;4.20;;;;;;;;;;5050927;28;20271;-76
2024/02/03 11:21:59;;;;;;;14.30;4.72;;;;;;;;;;5051985;28;20600;-76
2024/02/03 11:24:25;;;;;;;8.07;4.35;;;;;;;;;;5048009;28;20185;-79
2024/02/03 11:27:08;;;;;;;13.68;4.05;;;;;;;;;;5044659;28;20712;-77
2024/02/03 11:29:35;;;;;;;13.15;4.25;;;;;;;;;;5030000;28;20185;-76
2024/02/03 11:32:04;;;;;;;10.82;3.80;;;;;;;;;;5048772;28;20182;-76
2024/02/03 11:34:32;;;;;;;12.48;4.25;;;;;;;;;;5051518;28;20292;-76
2024/02/03 11:37:01;;;;;;;11.57;3.38;;;;;;;;;;5025322;28;20626;-76
2024/02/03 11:39:30;;;;;;;10.48;3.50;;;;;;;;;;5037459;28;20267;-75
2024/02/03 11:41:56;;;;;;;7.60;3.83;;;;;;;;;;5031759;28;20275;-76
2024/02/03 11:44:22;;;;;;;10.43;3.55;;;;;;;;;;5049950;28;20185;-78
2024/02/03 11:46:47;;;;;;;9.02;3.20;;;;;;;;;;5051940;28;20313;-77
2024/02/03 11:49:13;;;;;;;13.27;3.50;;;;;;;;;;5038152;28;20190;-76
2024/02/03 11:51:40;;;;;;;14.07;3.72;;;;;;;;;;5047836;28;20255;-76
2024/02/03 11:54:06;;;;;;;11.10;3.35;;;;;;;;;;5043279;28;20186;-75
2024/02/03 11:56:32;;;;;;;11.32;4.20;;;;;;;;;;5041625;28;20569;-76
2024/02/03 11:58:57;;;;;;;9.52;3.33;;;;;;;;;;5045146;28;20268;-75
2024/02/03 12:01:24;;;;;;;8.45;3.90;;;;;;;;;;5049925;28;20459;-76
2024/02/03 12:03:50;;;;;;;13.57;4.00;;;;;;;;;;5042198;28;20224;-76
2024/02/03 12:06:15;;;;;;;6.72;3.65;;;;;;;;;;5039948;28;20683;-76
2024/02/03 12:08:41;;;;;;;10.68;4.00;;;;;;;;;;5037084;28;20197;-76
2024/02/03 12:11:07;;;;;;;13.13;4.28;;;;;;;;;;5044663;28;20634;-76
2024/02/03 12:13:41;;;;;;;8.15;3.40;;;;;;;;;;5034693;28;20186;-76
2024/02/03 12:16:08;;;;;;;8.52;3.80;;;;;;;;;;5031894;28;20204;-76
2024/02/03 12:18:36;;;;;;;10.75;4.10;;;;;;;;;;5037010;28;20240;-76
2024/02/03 12:21:02;;;;;;;13.52;4.35;;;;;;;;;;5045384;28;20653;-76
2024/02/03 12:23:28;;;;;;;12.27;4.05;;;;;;;;;;5045487;28;20486;-77
2024/02/03 12:25:54;;;;;;;11.80;4.32;;;;;;;;;;5044372;28;20208;-76
2024/02/03 12:28:21;;;;;;;13.55;4.28;;;;;;;;;;5040085;28;20189;-76
2024/02/03 12:30:54;;;;;;;14.43;4.13;;;;;;;;;;5043141;28;20263;-75
2024/02/03 12:33:20;;;;;;;10.30;3.80;;;;;;;;;;5044535;28;20239;-76
2024/02/03 12:35:45;;;;;;;11.65;3.58;;;;;;;;;;5040774;28;20197;-76
2024/02/03 12:38:11;;;;;;;6.32;3.38;;;;;;;;;;5049149;28;20209;-76
2024/02/03 12:40:36;;;;;;;8.43;3.38;;;;;;;;;;5049856;28;20262;-76
2024/02/03 12:43:01;;;;;;;7.53;3.60;;;;;;;;;;5048498;28;20189;-76
2024/02/03 12:45:27;;;;;;;8.63;3.28;;;;;;;;;;5046976;28;20196;-75
2024/02/03 12:47:54;;;;;;;7.20;2.75;;;;;;;;;;5046846;28;20273;-75
2024/02/03 12:50:19;;;;;;;9.40;3.22;;;;;;;;;;5044778;28;20224;-75
2024/02/03 12:52:45;;;;;;;10.13;3.00;;;;;;;;;;5048184;28;20189;-75
2024/02/03 12:55:11;;;;;;;6.60;2.53;;;;;;;;;;5036557;28;20273;-76
2024/02/03 12:57:37;;;;;;;4.85;2.40;;;;;;;;;;5033698;28;20635;-75
2024/02/03 13:00:03;;;;;;;9.60;3.53;;;;;;;;;;5041506;28;20633;-76
2024/02/03 13:02:29;;;;;;;13.25;2.85;;;;;;;;;;5045558;28;20272;-75
2024/02/03 13:04:54;;;;;;;8.70;3.45;;;;;;;;;;5042205;28;20268;-75
2024/02/03 13:07:20;;;;;;;8.35;2.63;;;;;;;;;;5049089;28;20606;-75
2024/02/03 13:09:46;;;;;;;10.15;2.60;;;;;;;;;;5044274;28;20190;-75
2024/02/03 13:12:11;;;;;;;11.30;2.80;;;;;;;;;;5038335;28;20218;-75
2024/02/03 13:14:36;;;;;;;5.80;2.90;;;;;;;;;;5041158;28;20524;-75
2024/02/03 13:17:02;;;;;;;7.38;2.90;;;;;;;;;;5042415;28;20688;-76
2024/02/03 13:19:28;;;;;;;7.50;3.05;;;;;;;;;;5046879;28;20209;-76
2024/02/03 13:21:54;;;;;;;10.13;4.07;;;;;;;;;;5029850;28;20204;-76
2024/02/03 13:24:24;;;;;;;7.88;4.78;;;;;;;;;;5036856;28;20474;-76
2024/02/03 13:26:50;;;;;;;11.25;3.80;;;;;;;;;;5045270;28;20493;-75
2024/02/03 13:29:16;;;;;;;18.15;4.13;;;;;;;;;;5044769;28;20190;-75
2024/02/03 13:31:41;;;;;;;10.05;4.05;;;;;;;;;;5028695;28;20575;-75
2024/02/03 13:34:07;;;;;;;9.35;4.20;;;;;;;;;;5044964;28;20190;-75
2024/02/03 13:36:32;;;;;;;11.52;4.75;;;;;;;;;;5014177;28;20214;-75
2024/02/03 13:38:58;;;;;;;10.73;4.38;;;;;;;;;;5043169;28;20190;-75
2024/02/03 13:41:23;;;;;;;11.27;4.70;;;;;;;;;;5038242;28;20285;-75
2024/02/03 13:43:49;;;;;;;12.50;4.47;;;;;;;;;;5043508;28;20239;-75
2024/02/03 13:46:14;;;;;;;17.00;4.85;;;;;;;;;;5035033;28;20225;-76
2024/02/03 13:48:40;;;;;;;12.75;4.53;;;;;;;;;;5036075;28;20246;-75
2024/02/03 13:51:05;;;;;;;10.95;4.10;;;;;;;;;;5043297;28;20667;-76
2024/02/03 13:53:31;;;;;;;13.90;4.30;;;;;;;;;;5039372;28;20189;-76
2024/02/03 13:55:57;;;;;;;9.90;4.75;;;;;;;;;;5043308;28;20190;-75
2024/02/03 13:58:22;;;;;;;8.60;4.75;;;;;;;;;;5043577;28;20292;-75
2024/02/03 14:00:48;;;;;;;11.63;4.15;;;;;;;;;;5049197;28;20613;-76
2024/02/03 14:03:13;;;;;;;13.05;4.40;;;;;;;;;;5049438;28;20193;-75
2024/02/03 14:05:38;;;;;;;11.38;4.50;;;;;;;;;;5033606;28;20858;-74
2024/02/03 14:08:04;;;;;;;10.93;3.70;;;;;;;;;;5047462;28;20653;-76
2024/02/03 14:10:30;;;;;;;9.05;4.10;;;;;;;;;;5049628;28;20321;-75
2024/02/03 14:12:55;;;;;;;10.43;4.30;;;;;;;;;;5044165;28;20197;-76